Time;durP1;ratioP1;P1;durP2;ratioP2;P2;SDS_P1;SDS_P2;PMS_P1;PMS_P2;Temp;Humidity;BMP_temperature;BMP_pressure;BME280_temperature;BME280_humidity;BME280_pressure;Samples;Min_cycle;Max_cycle;Signal;HPM_P1;HPM_P2
2021/01/06 00:01:38;;;;;;;;;;;;;;;0.92;100.00;101329.74;1870641;75;20421;-39
2021/01/06 00:04:06;;;;;;;;;;;;;;;0.90;100.00;101322.36;1867586;75;20134;-38
2021/01/06 00:06:36;;;;;;;;;;;;;;;0.90;100.00;101326.23;1867352;75;20188;-40
2021/01/06 00:09:05;;;;;;;;;;;;;;;0.90;100.00;101324.52;1875953;75;20136;-39
2021/01/06 00:11:34;;;;;;;;;;;;;;;0.88;100.00;101321.01;1867341;77;20175;-39
2021/01/06 00:14:04;;;;;;;;;;;;;;;0.89;100.00;101323.17;1867337;77;20180;-38
2021/01/06 00:16:31;;;;;;;;;;;;;;;0.88;100.00;101327.45;1867000;77;20152;-39
2021/01/06 00:18:59;;;;;;;;;;;;;;;0.89;100.00;101328.34;1867094;76;20192;-38
2021/01/06 00:21:27;;;;;;;;;;;;;;;0.89;100.00;101317.60;1867139;77;20192;-39
2021/01/06 00:23:54;;;;;;;;;;;;;;;0.89;100.00;101308.98;1867258;76;20140;-38
2021/01/06 00:26:22;;;;;;;;;;;;;;;0.88;100.00;101321.01;1867936;75;20190;-39
2021/01/06 00:28:50;;;;;;;;;;;;;;;0.87;100.00;101319.25;1867205;77;20182;-38
2021/01/06 00:31:18;;;;;;;;;;;;;;;0.88;100.00;101319.72;1867217;77;20178;-39
2021/01/06 00:33:45;;;;;;;;;;;;;;;0.87;100.00;101323.53;1867314;77;20186;-39
2021/01/06 00:36:19;;;;;;;;;;;;;;;0.87;100.00;101324.41;1867264;77;20122;-37
2021/01/06 00:38:46;;;;;;;;;;;;;;;0.86;100.00;101325.23;1867433;77;20142;-39
2021/01/06 00:41:14;;;;;;;;;;;;;;;0.87;100.00;101319.66;1867579;77;20241;-39
2021/01/06 00:43:42;;;;;;;;;;;;;;;0.87;100.00;101315.37;1867417;77;20293;-39
2021/01/06 00:46:10;;;;;;;;;;;;;;;0.87;100.00;101326.98;1867366;77;20372;-40
2021/01/06 00:48:38;;;;;;;;;;;;;;;0.87;100.00;101315.78;1867126;77;20123;-39
2021/01/06 00:51:06;;;;;;;;;;;;;;;0.88;100.00;101317.55;1806278;77;20150;-40
2021/01/06 00:53:34;;;;;;;;;;;;;;;0.87;100.00;101314.09;1867150;77;20221;-38
2021/01/06 00:56:05;;;;;;;;;;;;;;;0.87;100.00;101311.92;1867285;77;20146;-38
2021/01/06 00:58:34;;;;;;;;;;;;;;;0.87;100.00;101320.95;1867360;77;20233;-39
2021/01/06 01:01:03;;;;;;;;;;;;;;;0.86;100.00;101302.00;1867604;77;20189;-39
2021/01/06 01:03:32;;;;;;;;;;;;;;;0.88;100.00;101304.64;1866453;77;20190;-40
2021/01/06 01:06:01;;;;;;;;;;;;;;;0.88;100.00;101309.39;1867151;77;20141;-38
2021/01/06 01:08:29;;;;;;;;;;;;;;;0.89;100.00;101306.40;1867069;77;20130;-40
2021/01/06 01:10:56;;;;;;;;;;;;;;;0.89;100.00;101303.41;1867891;75;20333;-39
2021/01/06 01:13:25;;;;;;;;;;;;;;;0.89;100.00;101301.23;1867133;75;20158;-40
2021/01/06 01:15:58;;;;;;;;;;;;;;;0.89;100.00;101299.95;1867410;77;20467;-39
2021/01/06 01:18:28;;;;;;;;;;;;;;;0.88;100.00;101309.80;1867244;77;20158;-39
2021/01/06 01:20:59;;;;;;;;;;;;;;;0.88;100.00;101310.69;1867416;75;20194;-39
2021/01/06 01:23:30;;;;;;;;;;;;;;;0.89;100.00;101301.23;1867113;75;20148;-39
2021/01/06 01:26:05;;;;;;;;;;;;;;;0.89;100.00;101299.53;1867151;77;20161;-39
2021/01/06 01:28:33;;;;;;;;;;;;;;;0.89;100.00;101301.23;1867274;76;20133;-39
2021/01/06 01:31:02;;;;;;;;;;;;;;;0.89;100.00;101289.21;1867442;76;20176;-38
2021/01/06 01:33:30;;;;;;;;;;;;;;;0.89;100.00;101296.95;1874342;75;20267;-38
2021/01/06 01:35:59;;;;;;;;;;;;;;;0.91;100.00;101285.39;1869453;75;20231;-39
2021/01/06 01:38:28;;;;;;;;;;;;;;;0.90;100.00;101283.22;1870011;75;20193;-39
2021/01/06 01:41:06;;;;;;;;;;;;;;;0.90;100.00;101284.92;1867398;77;20392;-39
2021/01/06 01:43:35;;;;;;;;;;;;;;;0.88;100.00;101282.29;1874083;75;20140;-39
2021/01/06 01:46:07;;;;;;;;;;;;;;;0.88;100.00;101280.13;1867676;75;20232;-38
2021/01/06 01:48:48;;;;;;;;;;;;;;;0.89;100.00;101282.76;1867130;77;20229;-39
2021/01/06 01:51:40;;;;;;;;;;;;;;;0.88;100.00;101282.70;1867006;77;20522;-39
2021/01/06 01:54:09;;;;;;;;;;;;;;;0.88;100.00;101293.02;1867193;77;20174;-39
2021/01/06 01:56:46;;;;;;;;;;;;;;;0.88;100.00;101304.23;1867396;77;20451;-39
2021/01/06 01:59:20;;;;;;;;;;;;;;;0.90;100.00;101286.22;1867181;77;20134;-39
2021/01/06 02:01:48;;;;;;;;;;;;;;;0.90;100.00;101294.84;1848859;77;20217;-38
2021/01/06 02:04:36;;;;;;;;;;;;;;;0.92;100.00;101281.55;1867150;77;20193;-39
2021/01/06 02:07:13;;;;;;;;;;;;;;;0.93;100.00;101294.04;1867141;77;20142;-39
2021/01/06 02:10:01;;;;;;;;;;;;;;;0.94;100.00;101291.92;1867403;77;20221;-38
2021/01/06 02:12:38;;;;;;;;;;;;;;;0.93;100.00;101287.17;1867162;77;20222;-39
2021/01/06 02:15:10;;;;;;;;;;;;;;;0.93;100.00;101284.59;1867542;77;20233;-40
2021/01/06 02:17:38;;;;;;;;;;;;;;;0.94;100.00;101282.89;1867140;77;20158;-40
2021/01/06 02:20:20;;;;;;;;;;;;;;;0.95;100.00;101285.94;1867311;77;20162;-38
2021/01/06 02:22:48;;;;;;;;;;;;;;;0.97;100.00;101287.75;1867349;77;20145;-39
2021/01/06 02:26:49;;;;;;;;;;;;;;;1.02;100.00;101291.34;1920499;74;20141;-39
2021/01/06 02:29:17;;;;;;;;;;;;;;;0.98;100.00;101297.26;1883098;75;20465;-39
2021/01/06 02:31:45;;;;;;;;;;;;;;;0.98;100.00;101294.67;1902134;75;20128;-40
2021/01/06 02:34:13;;;;;;;;;;;;;;;0.98;100.00;101297.26;1903237;75;20144;-39
2021/01/06 02:36:41;;;;;;;;;;;;;;;0.98;100.00;101298.55;1903318;75;20120;-38
2021/01/06 02:39:10;;;;;;;;;;;;;;;0.99;100.00;101300.27;1903053;75;20132;-38
2021/01/06 02:41:38;;;;;;;;;;;;;;;1.01;100.00;101291.30;1903345;75;20302;-40
2021/01/06 02:44:06;;;;;;;;;;;;;;;1.03;100.00;101300.86;1902945;75;20143;-39
2021/01/06 02:46:35;;;;;;;;;;;;;;;1.04;100.00;101306.48;1903063;75;20187;-39
2021/01/06 02:49:03;;;;;;;;;;;;;;;1.04;100.00;101310.36;1903074;75;20180;-39
2021/01/06 02:51:48;;;;;;;;;;;;;;;1.05;100.00;101304.78;1902866;75;20266;-39
2021/01/06 02:54:24;;;;;;;;;;;;;;;1.05;100.00;101304.34;1857929;75;20378;-39
2021/01/06 02:56:53;;;;;;;;;;;;;;;1.05;100.00;101304.78;1903057;75;20140;-40
2021/01/06 02:59:21;;;;;;;;;;;;;;;1.05;100.00;101313.38;1903310;75;20274;-40
2021/01/06 03:01:49;;;;;;;;;;;;;;;1.07;100.00;101319.47;1903009;75;20194;-39
2021/01/06 03:04:17;;;;;;;;;;;;;;;1.09;100.00;101322.11;1902973;75;20179;-39
2021/01/06 03:07:02;;;;;;;;;;;;;;;1.11;100.00;101324.34;1903292;75;20132;-38
2021/01/06 03:09:37;;;;;;;;;;;;;;;1.13;100.00;101322.66;1903180;75;20172;-38
2021/01/06 03:12:20;;;;;;;;;;;;;;;1.13;100.00;101330.41;1885907;75;20120;-39
2021/01/06 03:14:48;;;;;;;;;;;;;;;1.13;99.98;101326.53;1868238;77;20223;-39
2021/01/06 03:17:19;;;;;;;;;;;;;;;1.13;99.98;101326.11;1867832;76;20168;-38
2021/01/06 03:19:49;;;;;;;;;;;;;;;1.14;99.91;101308.92;1868215;77;20501;-39
2021/01/06 03:22:19;;;;;;;;;;;;;;;1.14;99.87;101314.09;1868177;77;20549;-38
2021/01/06 03:24:56;;;;;;;;;;;;;;;1.13;99.84;101316.20;1867989;75;20514;-39
2021/01/06 03:27:23;;;;;;;;;;;;;;;1.12;99.82;101317.02;1871858;75;20135;-38
2021/01/06 03:29:51;;;;;;;;;;;;;;;1.12;99.77;101315.73;1835047;77;20118;-39
2021/01/06 03:32:46;;;;;;;;;;;;;;;1.12;99.78;101308.86;1835032;77;20146;-39
2021/01/06 03:35:32;;;;;;;;;;;;;;;1.11;99.77;101298.10;1867922;77;20154;-39
2021/01/06 03:38:19;;;;;;;;;;;;;;;1.12;99.75;101302.82;1866736;77;20396;-39
2021/01/06 03:40:48;;;;;;;;;;;;;;;1.12;99.77;101295.95;1867185;77;20439;-39
2021/01/06 03:43:17;;;;;;;;;;;;;;;1.12;99.76;101292.08;1867226;77;20202;-38
2021/01/06 03:45:47;;;;;;;;;;;;;;;1.13;99.75;101294.25;1867206;77;20253;-38
2021/01/06 03:48:21;;;;;;;;;;;;;;;1.12;99.73;101290.79;1867320;77;20134;-38
2021/01/06 03:50:51;;;;;;;;;;;;;;;1.11;99.75;101296.81;1867466;77;20161;-40
2021/01/06 03:53:41;;;;;;;;;;;;;;;1.11;99.75;101292.94;1835478;77;20154;-40
2021/01/06 03:56:14;;;;;;;;;;;;;;;1.12;99.74;101298.95;1867411;77;20154;-48
2021/01/06 03:58:51;;;;;;;;;;;;;;;1.11;99.74;101299.39;1867263;77;20182;-44
2021/01/06 04:01:34;;;;;;;;;;;;;;;1.12;99.76;101290.79;1867353;77;20423;-40
2021/01/06 04:04:21;;;;;;;;;;;;;;;1.11;99.75;101279.15;1867470;77;20261;-40
2021/01/06 04:06:50;;;;;;;;;;;;;;;1.08;99.75;101269.59;1832461;78;20148;-39
2021/01/06 04:09:39;;;;;;;;;;;;;;;1.08;99.76;101275.16;1832673;78;20136;-38
2021/01/06 04:12:13;;;;;;;;;;;;;;;1.07;99.79;101282.03;1832815;78;20199;-39
2021/01/06 04:14:41;;;;;;;;;;;;;;;1.09;99.81;101279.51;1834562;77;20136;-37
2021/01/06 04:17:29;;;;;;;;;;;;;;;1.08;99.81;101279.04;1835791;78;20162;-39
2021/01/06 04:20:10;;;;;;;;;;;;;;;1.08;99.83;101283.80;1835463;78;20182;-39
2021/01/06 04:22:49;;;;;;;;;;;;;;;1.08;99.87;101283.80;1832965;78;20163;-39
2021/01/06 04:25:28;;;;;;;;;;;;;;;1.09;99.93;101285.55;1852956;77;20201;-39
2021/01/06 04:28:00;;;;;;;;;;;;;;;1.09;99.92;101280.39;1840414;77;20136;-38
2021/01/06 04:30:37;;;;;;;;;;;;;;;1.10;99.94;101267.94;1832628;78;20470;-40
2021/01/06 04:33:08;;;;;;;;;;;;;;;1.09;99.88;101273.93;1832555;78;20137;-40
2021/01/06 04:35:36;;;;;;;;;;;;;;;1.10;99.88;101283.84;1832387;78;20199;-39
2021/01/06 04:38:04;;;;;;;;;;;;;;;1.09;99.87;101289.84;1835198;77;20136;-39
2021/01/06 04:40:38;;;;;;;;;;;;;;;1.10;99.86;101287.72;1866254;77;20285;-40
2021/01/06 04:43:29;;;;;;;;;;;;;;;1.10;99.87;101295.05;1811329;77;20159;-39
2021/01/06 04:46:23;;;;;;;;;;;;;;;1.13;99.85;101299.41;1838948;77;20188;-38
2021/01/06 04:49:15;;;;;;;;;;;;;;;1.12;99.79;101294.66;1833309;77;20211;-39
2021/01/06 04:51:52;;;;;;;;;;;;;;;1.12;99.76;101296.37;1832826;78;20176;-39
2021/01/06 04:54:44;;;;;;;;;;;;;;;1.11;99.74;101299.39;1861406;77;20150;-39
2021/01/06 04:57:28;;;;;;;;;;;;;;;1.11;99.71;101301.09;1866463;77;20202;-39
2021/01/06 05:00:23;;;;;;;;;;;;;;;1.10;99.74;101308.37;1866174;77;20126;-39
2021/01/06 05:03:14;;;;;;;;;;;;;;;1.09;99.73;101285.96;1866094;77;20130;-39
2021/01/06 05:05:59;;;;;;;;;;;;;;;1.09;99.71;101306.62;1865882;77;20304;-39
2021/01/06 05:08:36;;;;;;;;;;;;;;;1.08;99.72;101297.99;1834238;77;20165;-40
2021/01/06 05:11:26;;;;;;;;;;;;;;;1.09;99.72;101296.29;1832351;78;20132;-41
2021/01/06 05:14:09;;;;;;;;;;;;;;;1.10;99.72;101299.34;1814669;78;20165;-48
2021/01/06 05:16:42;;;;;;;;;;;;;;;1.10;99.71;101308.37;1809566;79;20277;-39
2021/01/06 05:19:15;;;;;;;;;;;;;;;1.12;99.70;101314.44;1809423;79;20226;-40
2021/01/06 05:21:43;;;;;;;;;;;;;;;1.12;99.68;101311.86;1809559;79;20261;-41
2021/01/06 05:24:32;;;;;;;;;;;;;;;1.12;99.66;101311.45;1780764;78;20308;-40
2021/01/06 05:27:16;;;;;;;;;;;;;;;1.12;99.62;101309.28;1814087;78;20292;-39
2021/01/06 05:29:46;;;;;;;;;;;;;;;1.12;99.60;101302.82;1809778;78;20185;-39
2021/01/06 05:32:20;;;;;;;;;;;;;;;1.12;99.62;101307.58;1810516;78;20247;-39
2021/01/06 05:35:00;;;;;;;;;;;;;;;1.12;99.58;101307.98;1813541;78;20230;-38
2021/01/06 05:37:28;;;;;;;;;;;;;;;1.12;99.60;101305.41;1815509;78;20145;-39
2021/01/06 05:39:57;;;;;;;;;;;;;;;1.12;99.60;101314.03;1814040;78;20200;-41
2021/01/06 05:42:27;;;;;;;;;;;;;;;1.14;99.60;101317.55;1810077;78;20132;-41
2021/01/06 05:44:57;;;;;;;;;;;;;;;1.15;99.59;101325.77;1808910;79;20146;-41
2021/01/06 05:47:31;;;;;;;;;;;;;;;1.17;99.57;101325.41;1815996;78;20198;-39
2021/01/06 05:50:23;;;;;;;;;;;;;;;1.18;99.56;101332.73;1812691;78;20194;-40
2021/01/06 05:53:12;;;;;;;;;;;;;;;1.19;99.53;101330.18;1810983;78;20186;-40
2021/01/06 05:55:41;;;;;;;;;;;;;;;1.18;99.47;101324.55;1820255;78;20202;-39
2021/01/06 05:58:30;;;;;;;;;;;;;;;1.19;99.46;101328.89;1785470;79;20178;-41
2021/01/06 06:01:33;;;;;;;;;;;;;;;1.21;99.45;101326.36;1815877;78;20283;-38
2021/01/06 06:04:16;;;;;;;;;;;;;;;1.20;99.42;101327.19;1811189;78;20130;-40
2021/01/06 06:07:00;;;;;;;;;;;;;;;1.22;99.40;101331.11;1809384;78;20416;-40
2021/01/06 06:09:47;;;;;;;;;;;;;;;1.23;99.43;101324.71;1821914;78;20203;-39
2021/01/06 06:12:38;;;;;;;;;;;;;;;1.26;99.40;101327.78;1812722;78;20166;-40
2021/01/06 06:15:45;;;;;;;;;;;;;;;1.26;99.37;101328.66;1814211;78;20268;-39
2021/01/06 06:18:21;;;;;;;;;;;;;;;1.27;99.36;101323.97;1805701;78;20176;-39
2021/01/06 06:21:00;;;;;;;;;;;;;;;1.29;99.33;101325.31;1780275;78;20249;-40
2021/01/06 06:26:57;;;;;;;;;;;;;;;1.35;99.26;101319.04;1885002;74;20291;-40
2021/01/06 06:29:45;;;;;;;;;;;;;;;1.31;99.19;101316.80;1864726;75;20277;-41
2021/01/06 06:32:14;;;;;;;;;;;;;;;1.33;99.16;101312.94;1870526;75;20199;-44
2021/01/06 06:34:44;;;;;;;;;;;;;;;1.33;99.11;101307.77;1808778;77;20198;-38
2021/01/06 06:37:17;;;;;;;;;;;;;;;1.34;99.07;101307.83;1833092;77;20180;-42
2021/01/06 06:39:52;;;;;;;;;;;;;;;1.35;99.08;101318.63;1808853;77;20196;-41
2021/01/06 06:42:24;;;;;;;;;;;;;;;1.37;99.07;101323.44;1831580;77;20184;-42
2021/01/06 06:45:01;;;;;;;;;;;;;;;1.38;99.06;101323.02;1836314;77;20188;-40
2021/01/06 06:47:50;;;;;;;;;;;;;;;1.40;99.10;101330.38;1837778;77;20247;-39
2021/01/06 06:50:46;;;;;;;;;;;;;;;1.40;99.14;101329.97;1813537;77;20184;-39
2021/01/06 06:53:53;;;;;;;;;;;;;;;1.41;99.25;101336.02;1838829;77;20158;-42
2021/01/06 06:56:40;;;;;;;;;;;;;;;1.41;99.32;101343.77;1832446;77;20285;-41
2021/01/06 06:59:17;;;;;;;;;;;;;;;1.40;99.39;101347.17;1838280;77;20166;-42
2021/01/06 07:01:45;;;;;;;;;;;;;;;1.40;99.55;101353.62;1819471;77;20285;-39
2021/01/06 07:04:38;;;;;;;;;;;;;;;1.37;99.75;101355.72;1835756;77;20455;-42
2021/01/06 07:07:06;;;;;;;;;;;;;;;1.36;99.95;101354.38;1837178;77;20407;-42
2021/01/06 07:09:37;;;;;;;;;;;;;;;1.33;100.00;101350.39;1836156;77;20344;-40
2021/01/06 07:12:08;;;;;;;;;;;;;;;1.31;100.00;101346.50;1834318;77;20293;-42
2021/01/06 07:14:42;;;;;;;;;;;;;;;1.31;100.00;101340.45;1833578;77;20177;-42
2021/01/06 07:17:12;;;;;;;;;;;;;;;1.30;100.00;101346.03;1808549;77;20140;-43
2021/01/06 07:19:52;;;;;;;;;;;;;;;1.31;100.00;101341.33;1835735;77;20218;-42
2021/01/06 07:22:36;;;;;;;;;;;;;;;1.32;100.00;101344.76;1838922;77;20140;-41
2021/01/06 07:25:23;;;;;;;;;;;;;;;1.34;100.00;101340.12;1833313;77;20300;-41
2021/01/06 07:27:55;;;;;;;;;;;;;;;1.36;100.00;101353.97;1838814;77;20186;-45
2021/01/06 07:30:39;;;;;;;;;;;;;;;1.36;100.00;101348.80;1832933;77;20265;-40
2021/01/06 07:33:33;;;;;;;;;;;;;;;1.36;100.00;101357.84;1834853;77;20283;-42
2021/01/06 07:36:13;;;;;;;;;;;;;;;1.36;100.00;101354.38;1838888;77;20466;-42
2021/01/06 07:38:42;;;;;;;;;;;;;;;1.35;100.00;101349.63;1836342;77;20203;-43
2021/01/06 07:41:10;;;;;;;;;;;;;;;1.34;100.00;101353.03;1804874;78;20558;-46
2021/01/06 07:43:44;;;;;;;;;;;;;;;1.35;100.00;101357.78;1762815;79;20208;-42
2021/01/06 07:46:26;;;;;;;;;;;;;;;1.35;100.00;101355.20;1815410;78;20174;-43
2021/01/06 07:49:03;;;;;;;;;;;;;;;1.35;100.00;101356.08;1784143;78;20241;-39
2021/01/06 07:51:43;;;;;;;;;;;;;;;1.36;100.00;101356.96;1815178;78;20272;-43
2021/01/06 07:54:17;;;;;;;;;;;;;;;1.36;100.00;101358.25;1816378;78;20236;-41
2021/01/06 07:57:06;;;;;;;;;;;;;;;1.34;100.00;101356.91;1811488;78;20204;-42
2021/01/06 07:59:46;;;;;;;;;;;;;;;1.37;100.00;101362.59;1814229;78;20289;-42
2021/01/06 08:02:19;;;;;;;;;;;;;;;1.39;100.00;101363.50;1814275;78;20142;-41
2021/01/06 08:04:57;;;;;;;;;;;;;;;1.38;100.00;101360.03;1809060;78;20217;-42
2021/01/06 08:07:25;;;;;;;;;;;;;;;1.40;100.00;101366.13;1795416;79;20286;-39
2021/01/06 08:09:53;;;;;;;;;;;;;;;1.39;100.00;101366.08;1815411;78;20245;-44
2021/01/06 08:12:25;;;;;;;;;;;;;;;1.41;100.00;101365.31;1818063;78;20473;-40
2021/01/06 08:15:19;;;;;;;;;;;;;;;1.43;100.00;101358.91;1812730;78;20306;-39
2021/01/06 08:17:56;;;;;;;;;;;;;;;1.43;100.00;101359.78;1819227;78;20463;-42
2021/01/06 08:20:29;;;;;;;;;;;;;;;1.44;100.00;101349.04;1813419;78;20443;-41
2021/01/06 08:23:03;;;;;;;;;;;;;;;1.42;100.00;101353.27;1814972;78;20221;-41
2021/01/06 08:25:32;;;;;;;;;;;;;;;1.41;100.00;101351.10;1815486;78;20183;-41
2021/01/06 08:28:15;;;;;;;;;;;;;;;1.38;100.00;101348.85;1811076;78;20264;-44
2021/01/06 08:30:43;;;;;;;;;;;;;;;1.38;100.00;101344.98;1809543;78;20320;-49
2021/01/06 08:33:15;;;;;;;;;;;;;;;1.38;100.00;101341.95;1810590;78;20552;-41
2021/01/06 08:35:45;;;;;;;;;;;;;;;1.38;100.00;101348.85;1814936;78;20137;-41
2021/01/06 08:38:34;;;;;;;;;;;;;;;1.37;100.00;101347.97;1815098;78;20517;-42
2021/01/06 08:41:23;;;;;;;;;;;;;;;1.38;100.00;101346.27;1812174;78;20194;-42
2021/01/06 08:43:51;;;;;;;;;;;;;;;1.37;100.00;101341.92;1779321;78;20209;-41
2021/01/06 08:46:25;;;;;;;;;;;;;;;1.38;100.00;101341.11;1811590;78;20235;-44
2021/01/06 08:48:53;;;;;;;;;;;;;;;1.37;100.00;101348.39;1813914;78;20147;-39
2021/01/06 08:51:32;;;;;;;;;;;;;;;1.38;100.00;101346.27;1764470;78;20279;-47
2021/01/06 08:54:17;;;;;;;;;;;;;;;1.39;100.00;101342.83;1814554;78;20472;-41
2021/01/06 08:56:48;;;;;;;;;;;;;;;1.41;100.00;101343.77;1785393;78;20295;-39
2021/01/06 08:59:26;;;;;;;;;;;;;;;1.43;100.00;101341.70;1774449;78;20641;-40
2021/01/06 09:01:58;;;;;;;;;;;;;;;1.46;100.00;101343.06;1793756;78;20206;-41
2021/01/06 09:04:39;;;;;;;;;;;;;;;1.49;100.00;101343.17;1815911;78;20225;-40
2021/01/06 09:07:17;;;;;;;;;;;;;;;1.52;100.00;101347.54;1809073;78;20285;-40
2021/01/06 09:10:07;;;;;;;;;;;;;;;1.52;100.00;101340.66;1815852;78;20166;-39
2021/01/06 09:12:46;;;;;;;;;;;;;;;1.52;100.00;101342.37;1812693;78;20156;-41
2021/01/06 09:15:24;;;;;;;;;;;;;;;1.53;100.00;101341.55;1811508;78;20534;-40
2021/01/06 09:18:13;;;;;;;;;;;;;;;1.51;100.00;101332.45;1814098;78;20178;-41
2021/01/06 09:21:06;;;;;;;;;;;;;;;1.51;100.00;101338.06;1815622;78;20188;-42
2021/01/06 09:23:36;;;;;;;;;;;;;;;1.51;100.00;101337.62;1816591;78;20198;-42
2021/01/06 09:26:05;;;;;;;;;;;;;;;1.53;100.00;101342.84;1813067;78;20229;-42
2021/01/06 09:28:36;;;;;;;;;;;;;;;1.52;100.00;101338.50;1816270;78;20208;-40
2021/01/06 09:31:05;;;;;;;;;;;;;;;1.52;100.00;101336.79;1812338;78;20300;-41
2021/01/06 09:33:36;;;;;;;;;;;;;;;1.53;100.00;101337.67;1821353;78;20467;-40
2021/01/06 09:36:05;;;;;;;;;;;;;;;1.54;100.00;101340.72;1809642;78;20196;-40
2021/01/06 09:38:46;;;;;;;;;;;;;;;1.52;100.00;101341.95;1808869;78;20193;-41
2021/01/06 09:41:23;;;;;;;;;;;;;;;1.50;100.00;101342.35;1811611;78;20297;-40
2021/01/06 09:43:54;;;;;;;;;;;;;;;1.50;100.00;101337.59;1827567;78;20548;-39
2021/01/06 09:46:54;;;;;;;;;;;;;;;1.50;100.00;101335.02;1820679;78;20475;-39
2021/01/06 09:49:31;;;;;;;;;;;;;;;1.48;100.00;101332.37;1814944;78;20255;-42
2021/01/06 09:52:03;;;;;;;;;;;;;;;1.47;100.00;101325.45;1809095;78;20237;-39
2021/01/06 09:54:33;;;;;;;;;;;;;;;1.48;100.00;101319.88;1814915;78;20183;-39
2021/01/06 09:57:02;;;;;;;;;;;;;;;1.50;100.00;101321.68;1799112;78;20180;-40
2021/01/06 09:59:34;;;;;;;;;;;;;;;1.50;100.00;101319.51;1814899;78;20180;-39
2021/01/06 10:02:24;;;;;;;;;;;;;;;1.51;100.00;101319.98;1815343;78;20186;-42
2021/01/06 10:04:55;;;;;;;;;;;;;;;1.50;100.00;101328.14;1813107;78;20649;-44
2021/01/06 10:07:36;;;;;;;;;;;;;;;1.51;100.00;101329.86;1782343;78;20171;-41
2021/01/06 10:10:08;;;;;;;;;;;;;;;1.51;100.00;101331.16;1810041;78;20326;-43
2021/01/06 10:12:55;;;;;;;;;;;;;;;1.49;100.00;101323.80;1782310;78;20202;-41
2021/01/06 10:15:33;;;;;;;;;;;;;;;1.48;100.00;101323.75;1778133;78;20182;-41
2021/01/06 10:18:17;;;;;;;;;;;;;;;1.46;100.00;101327.56;1785508;78;20224;-41
2021/01/06 10:21:00;;;;;;;;;;;;;;;1.47;100.00;101327.16;1797138;78;20298;-44
2021/01/06 10:27:09;;;;;;;;;;;;;;;1.46;100.00;101325.39;1896738;74;20476;-39
2021/01/06 10:29:46;;;;;;;;;;;;;;;1.40;100.00;101331.26;1856057;75;20153;-41
2021/01/06 10:32:20;;;;;;;;;;;;;;;1.39;100.00;101329.91;1870731;75;20211;-46
2021/01/06 10:34:53;;;;;;;;;;;;;;;1.37;100.00;101326.02;1870234;75;20187;-42
2021/01/06 10:37:31;;;;;;;;;;;;;;;1.37;100.00;101327.31;1801579;75;20444;-40
2021/01/06 10:40:17;;;;;;;;;;;;;;;1.39;100.00;101333.78;1826329;75;20391;-42
2021/01/06 10:42:47;;;;;;;;;;;;;;;1.39;100.00;101338.54;1860108;75;20296;-42
2021/01/06 10:45:31;;;;;;;;;;;;;;;1.42;100.00;101339.06;1842569;77;20526;-44
2021/01/06 10:47:59;;;;;;;;;;;;;;;1.45;100.00;101339.14;1809266;78;20441;-41
2021/01/06 10:50:41;;;;;;;;;;;;;;;1.47;100.00;101338.78;1806695;78;20490;-44
2021/01/06 10:53:18;;;;;;;;;;;;;;;1.49;100.00;101346.17;1809891;77;20215;-41
2021/01/06 10:55:56;;;;;;;;;;;;;;;1.46;100.00;101343.06;1795826;78;20191;-51
2021/01/06 10:58:36;;;;;;;;;;;;;;;1.48;100.00;101346.58;1831326;77;20207;-42
2021/01/06 11:01:12;;;;;;;;;;;;;;;1.48;100.00;101337.54;1812282;78;20197;-44
2021/01/06 11:04:04;;;;;;;;;;;;;;;1.49;100.00;101334.13;1800637;77;20192;-41
2021/01/06 11:06:51;;;;;;;;;;;;;;;1.50;100.00;101333.72;1834176;77;20210;-40
2021/01/06 11:09:43;;;;;;;;;;;;;;;1.52;100.00;101341.08;1779867;77;20297;-42
2021/01/06 11:12:42;;;;;;;;;;;;;;;1.51;100.00;101341.94;1835613;77;20214;-43
2021/01/06 11:15:45;;;;;;;;;;;;;;;1.50;100.00;101343.64;1809408;78;20284;-43
2021/01/06 11:18:26;;;;;;;;;;;;;;;1.50;100.00;101344.05;1810395;78;20198;-40
2021/01/06 11:21:18;;;;;;;;;;;;;;;1.48;100.00;101346.58;1789314;78;20287;-43
2021/01/06 11:23:55;;;;;;;;;;;;;;;1.48;100.00;101341.42;1792848;79;20281;-42
2021/01/06 11:26:33;;;;;;;;;;;;;;;1.49;100.00;101339.30;1804719;78;20330;-42
2021/01/06 11:29:14;;;;;;;;;;;;;;;1.52;100.00;101347.54;1833084;77;20293;-40
2021/01/06 11:32:02;;;;;;;;;;;;;;;1.53;100.00;101342.84;1811863;78;20204;-41
2021/01/06 11:34:37;;;;;;;;;;;;;;;1.54;100.00;101335.14;1811771;78;20203;-42
2021/01/06 11:37:19;;;;;;;;;;;;;;;1.57;100.00;101332.66;1786181;78;20148;-42
2021/01/06 11:40:18;;;;;;;;;;;;;;;1.65;100.00;101327.69;1891020;74;20724;-41
2021/01/06 11:42:52;;;;;;;;;;;;;;;1.62;100.00;101333.20;1854795;75;20304;-42
2021/01/06 11:45:23;;;;;;;;;;;;;;;1.64;100.00;101326.38;1839856;75;20288;-42
2021/01/06 11:47:57;;;;;;;;;;;;;;;1.67;100.00;101317.41;1871406;75;20190;-42
2021/01/06 11:50:39;;;;;;;;;;;;;;;1.70;100.00;101317.52;1867815;75;20190;-42
2021/01/06 11:53:10;;;;;;;;;;;;;;;1.73;100.00;101319.75;1876919;75;20160;-42
2021/01/06 11:55:48;;;;;;;;;;;;;;;1.76;100.00;101325.03;1868949;75;20205;-41
2021/01/06 11:58:34;;;;;;;;;;;;;;;1.77;100.00;101324.16;1873834;75;20174;-41
2021/01/06 12:01:41;;;;;;;;;;;;;;;1.80;100.00;101330.73;1869769;75;20195;-41
2021/01/06 12:04:33;;;;;;;;;;;;;;;1.83;100.00;101333.42;1847236;75;20132;-42
2021/01/06 12:07:21;;;;;;;;;;;;;;;1.85;100.00;101334.73;1871029;75;20310;-43
2021/01/06 12:09:53;;;;;;;;;;;;;;;1.85;100.00;101339.48;1843129;75;20465;-42
2021/01/06 12:12:45;;;;;;;;;;;;;;;1.88;100.00;101337.00;1883792;75;20287;-42
2021/01/06 12:15:29;;;;;;;;;;;;;;;1.88;100.00;101340.88;1868043;75;20203;-41
2021/01/06 12:17:58;;;;;;;;;;;;;;;1.91;100.00;101339.66;1867818;75;20275;-43
2021/01/06 12:20:28;;;;;;;;;;;;;;;1.91;100.00;101333.20;1873107;75;20512;-43
2021/01/06 12:23:18;;;;;;;;;;;;;;;1.93;100.00;101344.47;1871070;75;20168;-41
2021/01/06 12:25:54;;;;;;;;;;;;;;;1.92;100.00;101342.70;1868483;75;20161;-42
2021/01/06 12:28:46;;;;;;;;;;;;;;;1.94;100.00;101349.23;1868562;75;20250;-40
2021/01/06 12:31:21;;;;;;;;;;;;;;;1.96;100.00;101348.45;1869370;75;20192;-42
2021/01/06 12:34:03;;;;;;;;;;;;;;;1.97;100.00;101350.17;1845162;77;20219;-40
2021/01/06 12:36:35;;;;;;;;;;;;;;;1.98;100.00;101352.34;1851055;75;20308;-41
2021/01/06 12:39:26;;;;;;;;;;;;;;;1.99;100.00;101347.64;1809579;77;20458;-40
2021/01/06 12:42:03;;;;;;;;;;;;;;;1.99;100.00;101345.94;1832280;77;20192;-44
2021/01/06 12:44:34;;;;;;;;;;;;;;;2.02;100.00;101348.16;1803084;78;20426;-47
2021/01/06 12:47:17;;;;;;;;;;;;;;;2.04;100.00;101346.47;1811469;78;20226;-42
2021/01/06 12:50:03;;;;;;;;;;;;;;;2.05;100.00;101358.16;1832302;77;20319;-42
2021/01/06 12:52:37;;;;;;;;;;;;;;;2.06;100.00;101356.03;1801661;78;20281;-43
2021/01/06 12:55:28;;;;;;;;;;;;;;;2.08;100.00;101359.55;1831637;77;20204;-43
2021/01/06 12:58:11;;;;;;;;;;;;;;;2.08;100.00;101358.25;1825015;78;20315;-42
2021/01/06 13:00:43;;;;;;;;;;;;;;;2.09;100.00;101355.25;1815963;78;20188;-42
2021/01/06 13:03:38;;;;;;;;;;;;;;;2.10;100.00;101360.89;1823042;78;20287;-45
2021/01/06 13:06:17;;;;;;;;;;;;;;;2.11;100.00;101355.73;1814172;78;20213;-41
2021/01/06 13:09:02;;;;;;;;;;;;;;;2.12;100.00;101343.27;1812041;78;20202;-43
2021/01/06 13:11:43;;;;;;;;;;;;;;;2.15;100.00;101348.55;1743736;79;20307;-41
2021/01/06 13:14:37;;;;;;;;;;;;;;;2.18;100.00;101347.31;1814764;78;20136;-42
2021/01/06 13:17:17;;;;;;;;;;;;;;;2.20;100.00;101345.66;1798921;78;21202;-42
2021/01/06 13:20:06;;;;;;;;;;;;;;;2.20;100.00;101349.95;1812203;78;20219;-41
2021/01/06 13:22:40;;;;;;;;;;;;;;;2.22;100.00;101355.64;1787538;78;20249;-42
2021/01/06 13:25:14;;;;;;;;;;;;;;;2.25;100.00;101358.71;1817324;78;20206;-41
2021/01/06 13:27:55;;;;;;;;;;;;;;;2.26;100.00;101351.00;1810638;78;20295;-41
2021/01/06 13:30:35;;;;;;;;;;;;;;;2.27;100.00;101350.17;1795299;78;20579;-41
2021/01/06 13:33:36;;;;;;;;;;;;;;;2.27;100.00;101357.93;1813182;78;20190;-45
2021/01/06 13:36:13;;;;;;;;;;;;;;;2.30;100.00;101359.70;1814480;78;20197;-41
2021/01/06 13:39:02;;;;;;;;;;;;;;;2.32;100.00;101352.87;1815897;78;20281;-42
2021/01/06 13:41:35;;;;;;;;;;;;;;;2.34;100.00;101352.50;1812692;78;20298;-42